sensor_id;sensor_type;location;lat;lon;timestamp;P1;durP1;ratioP1;P2;durP2;ratioP2
55114;SDS011;41010;53.252;5.786;2023-10-19T00:00:47;17.48;;;8.65;;
55114;SDS011;41010;53.252;5.786;2023-10-19T00:03:15;14.10;;;7.78;;
55114;SDS011;41010;53.252;5.786;2023-10-19T00:05:42;19.05;;;8.48;;
55114;SDS011;41010;53.252;5.786;2023-10-19T00:08:10;15.88;;;8.27;;
55114;SDS011;41010;53.252;5.786;2023-10-19T00:10:43;19.95;;;8.65;;
55114;SDS011;41010;53.252;5.786;2023-10-19T00:13:12;16.88;;;8.95;;
55114;SDS011;41010;53.252;5.786;2023-10-19T00:15:39;20.58;;;9.02;;
55114;SDS011;41010;53.252;5.786;2023-10-19T00:18:13;18.60;;;9.13;;
55114;SDS011;41010;53.252;5.786;2023-10-19T00:20:49;23.77;;;9.55;;
55114;SDS011;41010;53.252;5.786;2023-10-19T00:23:20;19.83;;;10.20;;
55114;SDS011;41010;53.252;5.786;2023-10-19T00:25:57;19.90;;;9.63;;
55114;SDS011;41010;53.252;5.786;2023-10-19T00:28:24;20.83;;;9.90;;
55114;SDS011;41010;53.252;5.786;2023-10-19T00:30:52;20.73;;;9.77;;
55114;SDS011;41010;53.252;5.786;2023-10-19T00:33:27;18.13;;;9.55;;
55114;SDS011;41010;53.252;5.786;2023-10-19T00:35:58;20.13;;;10.07;;
55114;SDS011;41010;53.252;5.786;2023-10-19T00:38:32;20.73;;;10.38;;
55114;SDS011;41010;53.252;5.786;2023-10-19T00:41:07;19.92;;;10.13;;
55114;SDS011;41010;53.252;5.786;2023-10-19T00:43:38;20.02;;;10.20;;
55114;SDS011;41010;53.252;5.786;2023-10-19T00:46:09;19.92;;;10.52;;
55114;SDS011;41010;53.252;5.786;2023-10-19T00:48:42;20.58;;;10.18;;
55114;SDS011;41010;53.252;5.786;2023-10-19T00:51:12;20.83;;;11.13;;
55114;SDS011;41010;53.252;5.786;2023-10-19T00:53:52;20.95;;;10.90;;
55114;SDS011;41010;53.252;5.786;2023-10-19T00:56:20;21.90;;;10.70;;
55114;SDS011;41010;53.252;5.786;2023-10-19T00:58:48;20.35;;;10.40;;
55114;SDS011;41010;53.252;5.786;2023-10-19T01:01:19;27.90;;;11.48;;
55114;SDS011;41010;53.252;5.786;2023-10-19T01:03:51;22.65;;;10.93;;
55114;SDS011;41010;53.252;5.786;2023-10-19T01:06:21;21.02;;;11.88;;
55114;SDS011;41010;53.252;5.786;2023-10-19T01:08:48;24.80;;;11.13;;
55114;SDS011;41010;53.252;5.786;2023-10-19T01:11:16;21.52;;;11.15;;
55114;SDS011;41010;53.252;5.786;2023-10-19T01:13:46;24.10;;;11.82;;
55114;SDS011;41010;53.252;5.786;2023-10-19T01:16:13;22.90;;;11.60;;
55114;SDS011;41010;53.252;5.786;2023-10-19T01:18:46;25.10;;;11.52;;
55114;SDS011;41010;53.252;5.786;2023-10-19T01:21:14;21.83;;;11.18;;
55114;SDS011;41010;53.252;5.786;2023-10-19T01:23:47;22.50;;;11.43;;
55114;SDS011;41010;53.252;5.786;2023-10-19T01:26:14;20.88;;;11.55;;
55114;SDS011;41010;53.252;5.786;2023-10-19T01:28:47;22.75;;;11.93;;
55114;SDS011;41010;53.252;5.786;2023-10-19T01:31:19;22.05;;;11.90;;
55114;SDS011;41010;53.252;5.786;2023-10-19T01:33:56;24.65;;;12.20;;
55114;SDS011;41010;53.252;5.786;2023-10-19T01:36:24;27.55;;;12.43;;
55114;SDS011;41010;53.252;5.786;2023-10-19T01:38:53;22.13;;;11.85;;
55114;SDS011;41010;53.252;5.786;2023-10-19T01:41:21;22.88;;;11.55;;
55114;SDS011;41010;53.252;5.786;2023-10-19T01:43:49;21.35;;;11.50;;
55114;SDS011;41010;53.252;5.786;2023-10-19T01:46:16;28.48;;;12.55;;
55114;SDS011;41010;53.252;5.786;2023-10-19T01:48:49;27.42;;;11.82;;
55114;SDS011;41010;53.252;5.786;2023-10-19T01:51:19;23.42;;;12.13;;
55114;SDS011;41010;53.252;5.786;2023-10-19T01:53:48;24.45;;;12.07;;
55114;SDS011;41010;53.252;5.786;2023-10-19T01:56:15;22.90;;;12.10;;
55114;SDS011;41010;53.252;5.786;2023-10-19T01:58:45;22.15;;;12.02;;
55114;SDS011;41010;53.252;5.786;2023-10-19T02:01:13;21.52;;;11.38;;
55114;SDS011;41010;53.252;5.786;2023-10-19T02:03:46;21.90;;;11.23;;
55114;SDS011;41010;53.252;5.786;2023-10-19T02:06:18;28.23;;;11.33;;
55114;SDS011;41010;53.252;5.786;2023-10-19T02:08:45;22.95;;;12.68;;
55114;SDS011;41010;53.252;5.786;2023-10-19T02:11:18;20.83;;;11.88;;
55114;SDS011;41010;53.252;5.786;2023-10-19T02:13:47;24.98;;;11.57;;
55114;SDS011;41010;53.252;5.786;2023-10-19T02:16:15;22.02;;;11.23;;
55114;SDS011;41010;53.252;5.786;2023-10-19T02:18:42;19.30;;;10.95;;
55114;SDS011;41010;53.252;5.786;2023-10-19T02:21:09;23.45;;;11.25;;
55114;SDS011;41010;53.252;5.786;2023-10-19T02:23:38;23.25;;;11.20;;
55114;SDS011;41010;53.252;5.786;2023-10-19T02:26:07;23.00;;;10.95;;
55114;SDS011;41010;53.252;5.786;2023-10-19T02:28:34;22.00;;;10.60;;
55114;SDS011;41010;53.252;5.786;2023-10-19T02:31:04;25.58;;;10.90;;
55114;SDS011;41010;53.252;5.786;2023-10-19T02:33:40;25.23;;;10.50;;
55114;SDS011;41010;53.252;5.786;2023-10-19T02:36:11;23.55;;;10.60;;
55114;SDS011;41010;53.252;5.786;2023-10-19T02:38:41;21.17;;;10.20;;
55114;SDS011;41010;53.252;5.786;2023-10-19T02:41:13;19.33;;;10.20;;
55114;SDS011;41010;53.252;5.786;2023-10-19T02:43:42;21.45;;;10.27;;
55114;SDS011;41010;53.252;5.786;2023-10-19T02:46:12;20.17;;;9.13;;
55114;SDS011;41010;53.252;5.786;2023-10-19T02:48:38;18.15;;;9.68;;
55114;SDS011;41010;53.252;5.786;2023-10-19T02:51:09;18.98;;;9.02;;
55114;SDS011;41010;53.252;5.786;2023-10-19T02:53:36;15.85;;;8.95;;
55114;SDS011;41010;53.252;5.786;2023-10-19T02:56:11;17.35;;;8.77;;
55114;SDS011;41010;53.252;5.786;2023-10-19T03:01:12;16.92;;;8.05;;
55114;SDS011;41010;53.252;5.786;2023-10-19T03:03:42;17.70;;;8.00;;
55114;SDS011;41010;53.252;5.786;2023-10-19T03:06:11;13.75;;;7.50;;
55114;SDS011;41010;53.252;5.786;2023-10-19T03:08:38;13.30;;;7.55;;
55114;SDS011;41010;53.252;5.786;2023-10-19T03:11:04;18.15;;;7.30;;
55114;SDS011;41010;53.252;5.786;2023-10-19T03:13:34;14.88;;;7.72;;
55114;SDS011;41010;53.252;5.786;2023-10-19T03:16:00;12.52;;;6.78;;
55114;SDS011;41010;53.252;5.786;2023-10-19T03:18:34;17.30;;;6.53;;
55114;SDS011;41010;53.252;5.786;2023-10-19T03:21:00;12.73;;;6.38;;
55114;SDS011;41010;53.252;5.786;2023-10-19T03:23:27;12.65;;;6.30;;
55114;SDS011;41010;53.252;5.786;2023-10-19T03:25:54;12.18;;;6.00;;
55114;SDS011;41010;53.252;5.786;2023-10-19T03:28:36;11.48;;;6.13;;
55114;SDS011;41010;53.252;5.786;2023-10-19T03:31:03;13.07;;;6.00;;
55114;SDS011;41010;53.252;5.786;2023-10-19T03:33:29;11.68;;;5.72;;
55114;SDS011;41010;53.252;5.786;2023-10-19T03:36:02;14.70;;;5.68;;
55114;SDS011;41010;53.252;5.786;2023-10-19T03:38:30;11.68;;;5.30;;
55114;SDS011;41010;53.252;5.786;2023-10-19T03:41:02;9.27;;;5.50;;
55114;SDS011;41010;53.252;5.786;2023-10-19T03:43:33;12.65;;;6.18;;
55114;SDS011;41010;53.252;5.786;2023-10-19T03:46:02;16.45;;;5.88;;
55114;SDS011;41010;53.252;5.786;2023-10-19T03:48:34;11.48;;;5.90;;
55114;SDS011;41010;53.252;5.786;2023-10-19T03:51:05;12.90;;;6.18;;
55114;SDS011;41010;53.252;5.786;2023-10-19T03:53:37;9.48;;;5.30;;
55114;SDS011;41010;53.252;5.786;2023-10-19T03:56:05;10.55;;;5.53;;
55114;SDS011;41010;53.252;5.786;2023-10-19T03:58:36;11.63;;;5.38;;
55114;SDS011;41010;53.252;5.786;2023-10-19T04:01:07;11.00;;;5.70;;
55114;SDS011;41010;53.252;5.786;2023-10-19T04:03:35;9.18;;;5.13;;
55114;SDS011;41010;53.252;5.786;2023-10-19T04:06:03;7.72;;;4.18;;
55114;SDS011;41010;53.252;5.786;2023-10-19T04:08:32;13.52;;;4.72;;
55114;SDS011;41010;53.252;5.786;2023-10-19T04:11:02;9.10;;;4.80;;
55114;SDS011;41010;53.252;5.786;2023-10-19T04:13:47;8.70;;;4.75;;
55114;SDS011;41010;53.252;5.786;2023-10-19T04:16:18;9.43;;;4.93;;
55114;SDS011;41010;53.252;5.786;2023-10-19T04:18:45;7.70;;;4.25;;
55114;SDS011;41010;53.252;5.786;2023-10-19T04:21:13;7.53;;;4.05;;
55114;SDS011;41010;53.252;5.786;2023-10-19T04:23:42;8.68;;;4.47;;
55114;SDS011;41010;53.252;5.786;2023-10-19T04:26:11;9.40;;;4.32;;
55114;SDS011;41010;53.252;5.786;2023-10-19T04:28:40;11.35;;;4.95;;
55114;SDS011;41010;53.252;5.786;2023-10-19T04:31:14;7.53;;;4.43;;
55114;SDS011;41010;53.252;5.786;2023-10-19T04:33:42;8.25;;;4.40;;
55114;SDS011;41010;53.252;5.786;2023-10-19T04:36:15;8.77;;;4.85;;
55114;SDS011;41010;53.252;5.786;2023-10-19T04:38:47;8.73;;;5.00;;
55114;SDS011;41010;53.252;5.786;2023-10-19T04:41:15;11.40;;;4.93;;
55114;SDS011;41010;53.252;5.786;2023-10-19T04:43:42;9.35;;;4.93;;
55114;SDS011;41010;53.252;5.786;2023-10-19T04:46:15;9.63;;;4.60;;
55114;SDS011;41010;53.252;5.786;2023-10-19T04:48:44;8.93;;;4.95;;
55114;SDS011;41010;53.252;5.786;2023-10-19T04:51:11;7.95;;;4.30;;
55114;SDS011;41010;53.252;5.786;2023-10-19T04:53:38;8.45;;;4.75;;
55114;SDS011;41010;53.252;5.786;2023-10-19T04:56:08;9.80;;;4.65;;
55114;SDS011;41010;53.252;5.786;2023-10-19T04:58:37;7.90;;;4.65;;
55114;SDS011;41010;53.252;5.786;2023-10-19T05:01:05;10.75;;;4.75;;
55114;SDS011;41010;53.252;5.786;2023-10-19T05:03:32;11.80;;;4.75;;
55114;SDS011;41010;53.252;5.786;2023-10-19T05:06:00;7.95;;;4.43;;
55114;SDS011;41010;53.252;5.786;2023-10-19T05:08:27;9.23;;;4.80;;
55114;SDS011;41010;53.252;5.786;2023-10-19T05:10:55;10.38;;;5.07;;
55114;SDS011;41010;53.252;5.786;2023-10-19T05:13:25;9.35;;;4.25;;
55114;SDS011;41010;53.252;5.786;2023-10-19T05:15:53;10.25;;;4.68;;
55114;SDS011;41010;53.252;5.786;2023-10-19T05:18:21;6.85;;;4.10;;
55114;SDS011;41010;53.252;5.786;2023-10-19T05:20:48;7.05;;;4.20;;
55114;SDS011;41010;53.252;5.786;2023-10-19T05:23:20;7.35;;;4.15;;
55114;SDS011;41010;53.252;5.786;2023-10-19T05:25:49;6.28;;;3.53;;
55114;SDS011;41010;53.252;5.786;2023-10-19T05:28:17;5.45;;;3.60;;
55114;SDS011;41010;53.252;5.786;2023-10-19T05:30:48;7.07;;;4.03;;
55114;SDS011;41010;53.252;5.786;2023-10-19T05:33:16;10.25;;;4.38;;
55114;SDS011;41010;53.252;5.786;2023-10-19T05:35:46;6.63;;;3.58;;
55114;SDS011;41010;53.252;5.786;2023-10-19T05:38:13;6.38;;;3.65;;
55114;SDS011;41010;53.252;5.786;2023-10-19T05:40:40;9.43;;;3.83;;
55114;SDS011;41010;53.252;5.786;2023-10-19T05:43:09;5.60;;;3.58;;
55114;SDS011;41010;53.252;5.786;2023-10-19T05:45:36;5.45;;;3.28;;
55114;SDS011;41010;53.252;5.786;2023-10-19T05:48:05;7.13;;;3.47;;
55114;SDS011;41010;53.252;5.786;2023-10-19T05:50:33;12.07;;;3.75;;
55114;SDS011;41010;53.252;5.786;2023-10-19T05:53:00;9.05;;;3.97;;
55114;SDS011;41010;53.252;5.786;2023-10-19T05:55:28;6.57;;;3.55;;
55114;SDS011;41010;53.252;5.786;2023-10-19T05:57:56;9.27;;;4.00;;
55114;SDS011;41010;53.252;5.786;2023-10-19T06:00:23;6.00;;;3.28;;
55114;SDS011;41010;53.252;5.786;2023-10-19T06:02:52;6.35;;;3.30;;
55114;SDS011;41010;53.252;5.786;2023-10-19T06:05:20;7.30;;;3.67;;
55114;SDS011;41010;53.252;5.786;2023-10-19T06:07:49;5.78;;;3.58;;
55114;SDS011;41010;53.252;5.786;2023-10-19T06:10:17;6.72;;;3.95;;
55114;SDS011;41010;53.252;5.786;2023-10-19T06:12:45;6.80;;;4.22;;
55114;SDS011;41010;53.252;5.786;2023-10-19T06:15:13;7.25;;;3.63;;
55114;SDS011;41010;53.252;5.786;2023-10-19T06:17:41;4.57;;;3.20;;
55114;SDS011;41010;53.252;5.786;2023-10-19T06:20:11;6.60;;;3.55;;
55114;SDS011;41010;53.252;5.786;2023-10-19T06:22:50;5.93;;;3.60;;
55114;SDS011;41010;53.252;5.786;2023-10-19T06:25:17;6.78;;;3.50;;
55114;SDS011;41010;53.252;5.786;2023-10-19T06:27:46;6.53;;;3.70;;
55114;SDS011;41010;53.252;5.786;2023-10-19T06:30:14;8.23;;;4.05;;
55114;SDS011;41010;53.252;5.786;2023-10-19T06:32:47;7.60;;;4.00;;
55114;SDS011;41010;53.252;5.786;2023-10-19T06:35:15;8.88;;;4.07;;
55114;SDS011;41010;53.252;5.786;2023-10-19T06:37:43;6.50;;;4.05;;
55114;SDS011;41010;53.252;5.786;2023-10-19T06:40:12;8.93;;;4.20;;
55114;SDS011;41010;53.252;5.786;2023-10-19T06:42:40;9.10;;;4.10;;
55114;SDS011;41010;53.252;5.786;2023-10-19T06:45:07;8.02;;;4.30;;
55114;SDS011;41010;53.252;5.786;2023-10-19T06:47:39;10.13;;;4.20;;
55114;SDS011;41010;53.252;5.786;2023-10-19T06:50:06;9.05;;;3.95;;
55114;SDS011;41010;53.252;5.786;2023-10-19T06:52:35;10.20;;;4.13;;
55114;SDS011;41010;53.252;5.786;2023-10-19T06:55:03;9.60;;;4.15;;
55114;SDS011;41010;53.252;5.786;2023-10-19T06:57:31;7.57;;;3.90;;
55114;SDS011;41010;53.252;5.786;2023-10-19T06:59:59;8.02;;;4.05;;
55114;SDS011;41010;53.252;5.786;2023-10-19T07:02:36;9.98;;;4.13;;
55114;SDS011;41010;53.252;5.786;2023-10-19T07:05:03;9.00;;;4.50;;
55114;SDS011;41010;53.252;5.786;2023-10-19T07:07:31;6.75;;;3.88;;
55114;SDS011;41010;53.252;5.786;2023-10-19T07:09:58;11.95;;;4.50;;
55114;SDS011;41010;53.252;5.786;2023-10-19T07:12:28;17.50;;;4.82;;
55114;SDS011;41010;53.252;5.786;2023-10-19T07:14:57;8.02;;;4.45;;
55114;SDS011;41010;53.252;5.786;2023-10-19T07:17:26;7.63;;;4.47;;
55114;SDS011;41010;53.252;5.786;2023-10-19T07:19:53;8.30;;;4.15;;
55114;SDS011;41010;53.252;5.786;2023-10-19T07:22:22;7.90;;;4.43;;
55114;SDS011;41010;53.252;5.786;2023-10-19T07:24:50;8.02;;;5.05;;
55114;SDS011;41010;53.252;5.786;2023-10-19T07:27:17;9.73;;;5.93;;
55114;SDS011;41010;53.252;5.786;2023-10-19T07:29:44;6.78;;;5.35;;
55114;SDS011;41010;53.252;5.786;2023-10-19T07:32:14;9.10;;;4.85;;
55114;SDS011;41010;53.252;5.786;2023-10-19T07:34:42;8.07;;;4.30;;
55114;SDS011;41010;53.252;5.786;2023-10-19T07:37:10;8.95;;;5.03;;
55114;SDS011;41010;53.252;5.786;2023-10-19T07:39:40;11.27;;;4.43;;
55114;SDS011;41010;53.252;5.786;2023-10-19T07:42:08;8.85;;;4.32;;
55114;SDS011;41010;53.252;5.786;2023-10-19T07:44:36;15.93;;;4.80;;
55114;SDS011;41010;53.252;5.786;2023-10-19T07:47:03;10.38;;;4.47;;
55114;SDS011;41010;53.252;5.786;2023-10-19T07:49:33;11.75;;;4.88;;
55114;SDS011;41010;53.252;5.786;2023-10-19T07:52:03;9.20;;;4.32;;
55114;SDS011;41010;53.252;5.786;2023-10-19T07:54:32;7.05;;;4.40;;
55114;SDS011;41010;53.252;5.786;2023-10-19T07:56:59;7.72;;;4.68;;
55114;SDS011;41010;53.252;5.786;2023-10-19T07:59:30;7.25;;;4.57;;
55114;SDS011;41010;53.252;5.786;2023-10-19T08:01:58;7.43;;;4.15;;
55114;SDS011;41010;53.252;5.786;2023-10-19T08:04:28;10.20;;;5.03;;
55114;SDS011;41010;53.252;5.786;2023-10-19T08:06:57;8.38;;;4.50;;
55114;SDS011;41010;53.252;5.786;2023-10-19T08:09:24;7.88;;;4.45;;
55114;SDS011;41010;53.252;5.786;2023-10-19T08:11:57;9.68;;;4.75;;
55114;SDS011;41010;53.252;5.786;2023-10-19T08:14:24;7.68;;;4.75;;
55114;SDS011;41010;53.252;5.786;2023-10-19T08:16:51;8.82;;;4.90;;
55114;SDS011;41010;53.252;5.786;2023-10-19T08:19:19;8.50;;;5.25;;
55114;SDS011;41010;53.252;5.786;2023-10-19T08:21:46;9.73;;;5.00;;
55114;SDS011;41010;53.252;5.786;2023-10-19T08:24:15;11.40;;;5.70;;
55114;SDS011;41010;53.252;5.786;2023-10-19T08:26:44;9.20;;;4.78;;
55114;SDS011;41010;53.252;5.786;2023-10-19T08:29:11;10.63;;;5.05;;
55114;SDS011;41010;53.252;5.786;2023-10-19T08:31:39;8.95;;;5.10;;
55114;SDS011;41010;53.252;5.786;2023-10-19T08:34:06;11.80;;;5.72;;
55114;SDS011;41010;53.252;5.786;2023-10-19T08:36:36;10.50;;;5.22;;
55114;SDS011;41010;53.252;5.786;2023-10-19T08:39:04;11.50;;;5.28;;
55114;SDS011;41010;53.252;5.786;2023-10-19T08:41:33;12.20;;;5.63;;
55114;SDS011;41010;53.252;5.786;2023-10-19T08:44:02;10.52;;;5.40;;
55114;SDS011;41010;53.252;5.786;2023-10-19T08:46:35;14.15;;;5.38;;
55114;SDS011;41010;53.252;5.786;2023-10-19T08:49:03;9.88;;;5.40;;
55114;SDS011;41010;53.252;5.786;2023-10-19T08:51:34;12.48;;;5.68;;
55114;SDS011;41010;53.252;5.786;2023-10-19T08:54:02;13.65;;;5.93;;
55114;SDS011;41010;53.252;5.786;2023-10-19T08:56:31;11.55;;;5.88;;
55114;SDS011;41010;53.252;5.786;2023-10-19T08:59:00;10.52;;;5.43;;
55114;SDS011;41010;53.252;5.786;2023-10-19T09:01:28;11.30;;;5.80;;
55114;SDS011;41010;53.252;5.786;2023-10-19T09:03:56;11.32;;;5.15;;
55114;SDS011;41010;53.252;5.786;2023-10-19T09:06:24;11.40;;;5.40;;
55114;SDS011;41010;53.252;5.786;2023-10-19T09:08:53;11.02;;;5.88;;
55114;SDS011;41010;53.252;5.786;2023-10-19T09:11:23;11.15;;;5.35;;
55114;SDS011;41010;53.252;5.786;2023-10-19T09:13:50;13.27;;;5.47;;
55114;SDS011;41010;53.252;5.786;2023-10-19T09:16:20;11.13;;;5.35;;
55114;SDS011;41010;53.252;5.786;2023-10-19T09:18:48;9.90;;;5.35;;
55114;SDS011;41010;53.252;5.786;2023-10-19T09:21:15;10.15;;;5.68;;
55114;SDS011;41010;53.252;5.786;2023-10-19T09:23:49;13.60;;;5.68;;
55114;SDS011;41010;53.252;5.786;2023-10-19T09:26:17;12.13;;;5.75;;
55114;SDS011;41010;53.252;5.786;2023-10-19T09:28:46;12.25;;;5.63;;
55114;SDS011;41010;53.252;5.786;2023-10-19T09:31:14;12.07;;;5.95;;
55114;SDS011;41010;53.252;5.786;2023-10-19T09:33:44;11.25;;;5.45;;
55114;SDS011;41010;53.252;5.786;2023-10-19T09:36:12;13.15;;;6.03;;
55114;SDS011;41010;53.252;5.786;2023-10-19T09:38:43;7.97;;;5.10;;
55114;SDS011;41010;53.252;5.786;2023-10-19T09:41:13;9.57;;;5.18;;
55114;SDS011;41010;53.252;5.786;2023-10-19T09:43:43;16.65;;;6.22;;
55114;SDS011;41010;53.252;5.786;2023-10-19T09:46:10;14.27;;;6.10;;
55114;SDS011;41010;53.252;5.786;2023-10-19T09:48:39;10.48;;;5.45;;
55114;SDS011;41010;53.252;5.786;2023-10-19T09:51:09;11.48;;;5.90;;
55114;SDS011;41010;53.252;5.786;2023-10-19T09:53:36;19.67;;;6.30;;
55114;SDS011;41010;53.252;5.786;2023-10-19T09:56:06;13.15;;;6.38;;
55114;SDS011;41010;53.252;5.786;2023-10-19T09:58:34;21.55;;;7.03;;
55114;SDS011;41010;53.252;5.786;2023-10-19T10:01:03;15.95;;;7.30;;
55114;SDS011;41010;53.252;5.786;2023-10-19T10:03:47;18.75;;;7.15;;
55114;SDS011;41010;53.252;5.786;2023-10-19T10:06:16;15.63;;;7.10;;
55114;SDS011;41010;53.252;5.786;2023-10-19T10:08:46;12.45;;;6.05;;
55114;SDS011;41010;53.252;5.786;2023-10-19T10:11:20;10.43;;;6.10;;
55114;SDS011;41010;53.252;5.786;2023-10-19T10:13:48;12.57;;;7.05;;
55114;SDS011;41010;53.252;5.786;2023-10-19T10:16:18;13.40;;;6.60;;
55114;SDS011;41010;53.252;5.786;2023-10-19T10:18:47;12.65;;;6.43;;
55114;SDS011;41010;53.252;5.786;2023-10-19T10:21:17;11.90;;;7.18;;
55114;SDS011;41010;53.252;5.786;2023-10-19T10:23:46;13.63;;;7.53;;
55114;SDS011;41010;53.252;5.786;2023-10-19T10:26:14;18.05;;;7.30;;
55114;SDS011;41010;53.252;5.786;2023-10-19T10:28:41;14.02;;;6.53;;
55114;SDS011;41010;53.252;5.786;2023-10-19T10:31:12;16.58;;;7.07;;
55114;SDS011;41010;53.252;5.786;2023-10-19T10:33:45;17.63;;;7.50;;
55114;SDS011;41010;53.252;5.786;2023-10-19T10:36:14;17.38;;;7.28;;
55114;SDS011;41010;53.252;5.786;2023-10-19T10:38:44;13.48;;;6.55;;
55114;SDS011;41010;53.252;5.786;2023-10-19T10:41:12;12.48;;;6.82;;
55114;SDS011;41010;53.252;5.786;2023-10-19T10:43:51;12.30;;;6.65;;
55114;SDS011;41010;53.252;5.786;2023-10-19T10:46:19;9.85;;;6.10;;
55114;SDS011;41010;53.252;5.786;2023-10-19T10:48:47;13.85;;;7.07;;
55114;SDS011;41010;53.252;5.786;2023-10-19T10:51:15;12.90;;;7.40;;
55114;SDS011;41010;53.252;5.786;2023-10-19T10:53:43;14.55;;;7.03;;
55114;SDS011;41010;53.252;5.786;2023-10-19T10:56:11;11.82;;;7.07;;
55114;SDS011;41010;53.252;5.786;2023-10-19T10:58:38;13.13;;;7.15;;
55114;SDS011;41010;53.252;5.786;2023-10-19T11:01:06;20.98;;;7.10;;
55114;SDS011;41010;53.252;5.786;2023-10-19T11:03:35;12.95;;;6.68;;
55114;SDS011;41010;53.252;5.786;2023-10-19T11:06:03;17.98;;;6.95;;
55114;SDS011;41010;53.252;5.786;2023-10-19T11:08:33;14.05;;;6.55;;
55114;SDS011;41010;53.252;5.786;2023-10-19T11:11:04;15.75;;;7.57;;
55114;SDS011;41010;53.252;5.786;2023-10-19T11:13:33;15.68;;;7.55;;
55114;SDS011;41010;53.252;5.786;2023-10-19T11:16:03;17.45;;;7.93;;
55114;SDS011;41010;53.252;5.786;2023-10-19T11:18:31;18.75;;;8.23;;
55114;SDS011;41010;53.252;5.786;2023-10-19T11:21:01;15.55;;;8.07;;
55114;SDS011;41010;53.252;5.786;2023-10-19T11:23:40;16.02;;;7.88;;
55114;SDS011;41010;53.252;5.786;2023-10-19T11:26:08;13.73;;;7.63;;
55114;SDS011;41010;53.252;5.786;2023-10-19T11:28:37;17.10;;;7.63;;
55114;SDS011;41010;53.252;5.786;2023-10-19T11:31:14;14.48;;;7.18;;
55114;SDS011;41010;53.252;5.786;2023-10-19T11:33:42;12.82;;;6.60;;
55114;SDS011;41010;53.252;5.786;2023-10-19T11:36:10;11.80;;;6.38;;
55114;SDS011;41010;53.252;5.786;2023-10-19T11:38:41;10.10;;;6.53;;
55114;SDS011;41010;53.252;5.786;2023-10-19T11:41:09;10.77;;;6.22;;
55114;SDS011;41010;53.252;5.786;2023-10-19T11:43:39;11.70;;;5.85;;
55114;SDS011;41010;53.252;5.786;2023-10-19T11:46:07;12.90;;;6.00;;
55114;SDS011;41010;53.252;5.786;2023-10-19T11:48:35;12.32;;;6.43;;
55114;SDS011;41010;53.252;5.786;2023-10-19T11:51:02;11.90;;;6.03;;
55114;SDS011;41010;53.252;5.786;2023-10-19T11:53:33;9.75;;;6.30;;
55114;SDS011;41010;53.252;5.786;2023-10-19T11:56:02;10.70;;;6.38;;
55114;SDS011;41010;53.252;5.786;2023-10-19T11:58:31;10.93;;;6.15;;
55114;SDS011;41010;53.252;5.786;2023-10-19T12:01:01;9.95;;;6.13;;
55114;SDS011;41010;53.252;5.786;2023-10-19T12:03:30;10.68;;;5.88;;
55114;SDS011;41010;53.252;5.786;2023-10-19T12:06:00;8.77;;;5.60;;
55114;SDS011;41010;53.252;5.786;2023-10-19T12:08:29;10.93;;;6.35;;
55114;SDS011;41010;53.252;5.786;2023-10-19T12:10:56;12.30;;;5.65;;
55114;SDS011;41010;53.252;5.786;2023-10-19T12:13:23;9.70;;;5.35;;
55114;SDS011;41010;53.252;5.786;2023-10-19T12:15:51;8.30;;;4.75;;
55114;SDS011;41010;53.252;5.786;2023-10-19T12:18:21;9.25;;;5.05;;
55114;SDS011;41010;53.252;5.786;2023-10-19T12:20:48;7.88;;;4.32;;
55114;SDS011;41010;53.252;5.786;2023-10-19T12:23:16;7.60;;;4.35;;
55114;SDS011;41010;53.252;5.786;2023-10-19T12:25:43;9.85;;;4.60;;
55114;SDS011;41010;53.252;5.786;2023-10-19T12:28:11;7.10;;;4.13;;
55114;SDS011;41010;53.252;5.786;2023-10-19T12:30:40;10.65;;;4.55;;
55114;SDS011;41010;53.252;5.786;2023-10-19T12:33:08;8.95;;;4.65;;
55114;SDS011;41010;53.252;5.786;2023-10-19T12:35:39;8.98;;;4.30;;
55114;SDS011;41010;53.252;5.786;2023-10-19T12:38:19;9.73;;;5.00;;
55114;SDS011;41010;53.252;5.786;2023-10-19T12:40:46;7.40;;;4.10;;
55114;SDS011;41010;53.252;5.786;2023-10-19T12:43:15;8.00;;;3.83;;
55114;SDS011;41010;53.252;5.786;2023-10-19T12:45:44;9.65;;;4.10;;
55114;SDS011;41010;53.252;5.786;2023-10-19T12:48:16;6.88;;;4.47;;
55114;SDS011;41010;53.252;5.786;2023-10-19T12:50:44;11.48;;;4.20;;
55114;SDS011;41010;53.252;5.786;2023-10-19T12:53:12;8.05;;;4.00;;
55114;SDS011;41010;53.252;5.786;2023-10-19T12:55:40;8.80;;;3.92;;
55114;SDS011;41010;53.252;5.786;2023-10-19T12:58:08;7.32;;;4.10;;
55114;SDS011;41010;53.252;5.786;2023-10-19T13:00:37;7.13;;;3.90;;
55114;SDS011;41010;53.252;5.786;2023-10-19T13:03:09;5.63;;;3.13;;
55114;SDS011;41010;53.252;5.786;2023-10-19T13:05:41;5.05;;;2.80;;
55114;SDS011;41010;53.252;5.786;2023-10-19T13:08:11;5.30;;;3.42;;
55114;SDS011;41010;53.252;5.786;2023-10-19T13:10:40;9.18;;;3.58;;
55114;SDS011;41010;53.252;5.786;2023-10-19T13:13:08;5.82;;;3.30;;
55114;SDS011;41010;53.252;5.786;2023-10-19T13:15:38;6.03;;;3.30;;
55114;SDS011;41010;53.252;5.786;2023-10-19T13:18:06;4.97;;;3.25;;
55114;SDS011;41010;53.252;5.786;2023-10-19T13:20:35;5.85;;;3.42;;
55114;SDS011;41010;53.252;5.786;2023-10-19T13:23:03;5.28;;;3.13;;
55114;SDS011;41010;53.252;5.786;2023-10-19T13:25:33;4.70;;;3.20;;
55114;SDS011;41010;53.252;5.786;2023-10-19T13:28:12;6.13;;;3.42;;
55114;SDS011;41010;53.252;5.786;2023-10-19T13:30:39;6.55;;;3.35;;
55114;SDS011;41010;53.252;5.786;2023-10-19T13:33:07;6.35;;;3.85;;
55114;SDS011;41010;53.252;5.786;2023-10-19T13:35:35;5.70;;;3.85;;
55114;SDS011;41010;53.252;5.786;2023-10-19T13:38:03;8.13;;;3.88;;
55114;SDS011;41010;53.252;5.786;2023-10-19T13:40:32;6.38;;;3.63;;
55114;SDS011;41010;53.252;5.786;2023-10-19T13:42:59;6.00;;;3.90;;
55114;SDS011;41010;53.252;5.786;2023-10-19T13:45:27;9.05;;;4.05;;
55114;SDS011;41010;53.252;5.786;2023-10-19T13:47:54;8.98;;;4.70;;
55114;SDS011;41010;53.252;5.786;2023-10-19T13:50:23;9.35;;;4.50;;
55114;SDS011;41010;53.252;5.786;2023-10-19T13:52:52;8.15;;;4.28;;
55114;SDS011;41010;53.252;5.786;2023-10-19T13:55:21;8.50;;;5.10;;
55114;SDS011;41010;53.252;5.786;2023-10-19T13:57:50;8.60;;;5.00;;
55114;SDS011;41010;53.252;5.786;2023-10-19T14:00:18;12.30;;;5.93;;
55114;SDS011;41010;53.252;5.786;2023-10-19T14:02:48;13.38;;;6.00;;
55114;SDS011;41010;53.252;5.786;2023-10-19T14:05:16;14.25;;;5.80;;
55114;SDS011;41010;53.252;5.786;2023-10-19T14:07:44;15.55;;;6.38;;
55114;SDS011;41010;53.252;5.786;2023-10-19T14:10:13;14.95;;;6.90;;
55114;SDS011;41010;53.252;5.786;2023-10-19T14:12:41;15.00;;;7.00;;
55114;SDS011;41010;53.252;5.786;2023-10-19T14:15:14;13.70;;;6.72;;
55114;SDS011;41010;53.252;5.786;2023-10-19T14:17:43;13.60;;;7.20;;
55114;SDS011;41010;53.252;5.786;2023-10-19T14:20:11;13.82;;;6.95;;
55114;SDS011;41010;53.252;5.786;2023-10-19T14:22:41;13.93;;;7.72;;
55114;SDS011;41010;53.252;5.786;2023-10-19T14:25:09;14.77;;;8.23;;
55114;SDS011;41010;53.252;5.786;2023-10-19T14:27:41;13.85;;;7.72;;
55114;SDS011;41010;53.252;5.786;2023-10-19T14:30:09;16.35;;;8.10;;
55114;SDS011;41010;53.252;5.786;2023-10-19T14:32:39;18.73;;;7.68;;
55114;SDS011;41010;53.252;5.786;2023-10-19T14:35:07;14.02;;;7.32;;
55114;SDS011;41010;53.252;5.786;2023-10-19T14:37:36;15.80;;;7.68;;
55114;SDS011;41010;53.252;5.786;2023-10-19T14:40:06;19.63;;;8.15;;
55114;SDS011;41010;53.252;5.786;2023-10-19T14:42:35;16.83;;;7.22;;
55114;SDS011;41010;53.252;5.786;2023-10-19T14:45:04;14.10;;;7.00;;
55114;SDS011;41010;53.252;5.786;2023-10-19T14:47:34;12.98;;;6.57;;
55114;SDS011;41010;53.252;5.786;2023-10-19T14:50:03;14.30;;;6.72;;
55114;SDS011;41010;53.252;5.786;2023-10-19T14:52:31;13.48;;;6.45;;